sensor_id;sensor_type;location;lat;lon;timestamp;P1;durP1;ratioP1;P2;durP2;ratioP2
67981;SDS011;64109;52.148;4.466;2022-12-16T00:02:00;3.03;;;0.98;;
67981;SDS011;64109;52.148;4.466;2022-12-16T00:04:26;3.47;;;1.67;;
67981;SDS011;64109;52.148;4.466;2022-12-16T00:06:52;4.82;;;1.20;;
67981;SDS011;64109;52.148;4.466;2022-12-16T00:09:18;2.25;;;1.15;;
67981;SDS011;64109;52.148;4.466;2022-12-16T00:11:44;3.33;;;1.27;;
67981;SDS011;64109;52.148;4.466;2022-12-16T00:14:10;2.75;;;1.42;;
67981;SDS011;64109;52.148;4.466;2022-12-16T00:16:36;2.25;;;0.88;;
67981;SDS011;64109;52.148;4.466;2022-12-16T00:19:02;4.07;;;1.70;;
67981;SDS011;64109;52.148;4.466;2022-12-16T00:21:28;2.70;;;1.27;;
67981;SDS011;64109;52.148;4.466;2022-12-16T00:23:55;3.10;;;1.33;;
67981;SDS011;64109;52.148;4.466;2022-12-16T00:26:21;3.55;;;1.05;;
67981;SDS011;64109;52.148;4.466;2022-12-16T00:28:47;2.13;;;1.00;;
67981;SDS011;64109;52.148;4.466;2022-12-16T00:31:13;3.13;;;1.10;;
67981;SDS011;64109;52.148;4.466;2022-12-16T00:33:39;2.45;;;1.00;;
67981;SDS011;64109;52.148;4.466;2022-12-16T00:36:05;3.20;;;1.00;;
67981;SDS011;64109;52.148;4.466;2022-12-16T00:38:31;1.60;;;0.77;;
67981;SDS011;64109;52.148;4.466;2022-12-16T00:40:57;3.38;;;1.27;;
67981;SDS011;64109;52.148;4.466;2022-12-16T00:43:24;3.08;;;1.15;;
67981;SDS011;64109;52.148;4.466;2022-12-16T00:45:50;2.70;;;1.20;;
67981;SDS011;64109;52.148;4.466;2022-12-16T00:48:16;4.15;;;1.00;;
67981;SDS011;64109;52.148;4.466;2022-12-16T00:50:45;3.33;;;1.02;;
67981;SDS011;64109;52.148;4.466;2022-12-16T00:53:13;2.92;;;1.00;;
67981;SDS011;64109;52.148;4.466;2022-12-16T00:55:39;2.63;;;0.98;;
67981;SDS011;64109;52.148;4.466;2022-12-16T00:58:05;2.22;;;0.82;;
67981;SDS011;64109;52.148;4.466;2022-12-16T01:00:31;2.83;;;0.90;;
67981;SDS011;64109;52.148;4.466;2022-12-16T01:02:57;2.72;;;1.02;;
67981;SDS011;64109;52.148;4.466;2022-12-16T01:05:24;3.53;;;1.30;;
67981;SDS011;64109;52.148;4.466;2022-12-16T01:07:53;1.88;;;0.80;;
67981;SDS011;64109;52.148;4.466;2022-12-16T01:10:20;2.60;;;0.75;;
67981;SDS011;64109;52.148;4.466;2022-12-16T01:12:46;1.88;;;1.00;;
67981;SDS011;64109;52.148;4.466;2022-12-16T01:15:12;1.27;;;0.80;;
67981;SDS011;64109;52.148;4.466;2022-12-16T01:17:39;1.88;;;0.90;;
67981;SDS011;64109;52.148;4.466;2022-12-16T01:20:05;3.38;;;0.95;;
67981;SDS011;64109;52.148;4.466;2022-12-16T01:22:32;3.05;;;0.80;;
67981;SDS011;64109;52.148;4.466;2022-12-16T01:24:59;3.05;;;1.20;;
67981;SDS011;64109;52.148;4.466;2022-12-16T01:27:25;2.42;;;0.95;;
67981;SDS011;64109;52.148;4.466;2022-12-16T01:29:52;3.83;;;0.90;;
67981;SDS011;64109;52.148;4.466;2022-12-16T01:32:18;1.63;;;0.88;;
67981;SDS011;64109;52.148;4.466;2022-12-16T01:34:48;2.00;;;1.00;;
67981;SDS011;64109;52.148;4.466;2022-12-16T01:37:15;2.42;;;0.90;;
67981;SDS011;64109;52.148;4.466;2022-12-16T01:39:41;3.20;;;0.93;;
67981;SDS011;64109;52.148;4.466;2022-12-16T01:42:09;2.55;;;0.98;;
67981;SDS011;64109;52.148;4.466;2022-12-16T01:44:36;2.55;;;0.77;;
67981;SDS011;64109;52.148;4.466;2022-12-16T01:47:04;2.53;;;0.95;;
67981;SDS011;64109;52.148;4.466;2022-12-16T01:49:38;2.35;;;0.93;;
67981;SDS011;64109;52.148;4.466;2022-12-16T01:52:07;2.63;;;0.73;;
67981;SDS011;64109;52.148;4.466;2022-12-16T01:54:38;2.47;;;1.02;;
67981;SDS011;64109;52.148;4.466;2022-12-16T01:57:14;2.60;;;1.00;;
67981;SDS011;64109;52.148;4.466;2022-12-16T01:59:43;1.98;;;0.80;;
67981;SDS011;64109;52.148;4.466;2022-12-16T02:02:10;2.55;;;0.68;;
67981;SDS011;64109;52.148;4.466;2022-12-16T02:04:37;3.20;;;0.90;;
67981;SDS011;64109;52.148;4.466;2022-12-16T02:07:23;2.78;;;1.05;;
67981;SDS011;64109;52.148;4.466;2022-12-16T02:09:49;1.30;;;0.60;;
67981;SDS011;64109;52.148;4.466;2022-12-16T02:17:41;2.75;;;0.88;;
67981;SDS011;64109;52.148;4.466;2022-12-16T02:38:16;2.38;;;0.90;;
67981;SDS011;64109;52.148;4.466;2022-12-16T02:40:54;1.38;;;0.52;;
67981;SDS011;64109;52.148;4.466;2022-12-16T02:46:07;3.03;;;0.80;;
67981;SDS011;64109;52.148;4.466;2022-12-16T02:48:33;2.20;;;0.60;;
67981;SDS011;64109;52.148;4.466;2022-12-16T02:50:59;3.63;;;0.65;;
67981;SDS011;64109;52.148;4.466;2022-12-16T02:53:25;1.80;;;0.73;;
67981;SDS011;64109;52.148;4.466;2022-12-16T02:58:27;4.15;;;0.80;;
67981;SDS011;64109;52.148;4.466;2022-12-16T03:03:29;2.13;;;0.80;;
67981;SDS011;64109;52.148;4.466;2022-12-16T03:05:56;2.03;;;0.57;;
67981;SDS011;64109;52.148;4.466;2022-12-16T03:08:35;2.08;;;0.73;;
67981;SDS011;64109;52.148;4.466;2022-12-16T03:11:02;2.63;;;0.95;;
67981;SDS011;64109;52.148;4.466;2022-12-16T03:13:30;2.88;;;0.77;;
67981;SDS011;64109;52.148;4.466;2022-12-16T03:15:57;1.40;;;0.60;;
67981;SDS011;64109;52.148;4.466;2022-12-16T03:18:25;3.50;;;0.77;;
67981;SDS011;64109;52.148;4.466;2022-12-16T03:20:56;2.40;;;0.80;;
67981;SDS011;64109;52.148;4.466;2022-12-16T03:23:27;2.83;;;0.70;;
67981;SDS011;64109;52.148;4.466;2022-12-16T03:25:57;2.45;;;0.65;;
67981;SDS011;64109;52.148;4.466;2022-12-16T03:33:51;2.63;;;0.90;;
67981;SDS011;64109;52.148;4.466;2022-12-16T03:36:21;1.70;;;0.68;;
67981;SDS011;64109;52.148;4.466;2022-12-16T03:38:49;2.92;;;0.70;;
67981;SDS011;64109;52.148;4.466;2022-12-16T03:41:16;2.17;;;0.80;;
67981;SDS011;64109;52.148;4.466;2022-12-16T03:43:43;2.63;;;1.17;;
67981;SDS011;64109;52.148;4.466;2022-12-16T03:46:09;2.30;;;0.70;;
67981;SDS011;64109;52.148;4.466;2022-12-16T03:48:43;2.33;;;0.68;;
67981;SDS011;64109;52.148;4.466;2022-12-16T03:51:10;2.67;;;1.08;;
67981;SDS011;64109;52.148;4.466;2022-12-16T03:53:36;2.20;;;0.75;;
67981;SDS011;64109;52.148;4.466;2022-12-16T03:56:02;2.38;;;0.90;;
67981;SDS011;64109;52.148;4.466;2022-12-16T03:58:28;2.17;;;0.70;;
67981;SDS011;64109;52.148;4.466;2022-12-16T04:00:54;1.15;;;0.50;;
67981;SDS011;64109;52.148;4.466;2022-12-16T04:03:20;2.45;;;0.90;;
67981;SDS011;64109;52.148;4.466;2022-12-16T04:05:46;2.60;;;1.02;;
67981;SDS011;64109;52.148;4.466;2022-12-16T04:08:12;1.65;;;0.73;;
67981;SDS011;64109;52.148;4.466;2022-12-16T04:10:38;1.67;;;0.73;;
67981;SDS011;64109;52.148;4.466;2022-12-16T04:13:23;2.97;;;0.60;;
67981;SDS011;64109;52.148;4.466;2022-12-16T04:16:10;2.20;;;0.88;;
67981;SDS011;64109;52.148;4.466;2022-12-16T04:18:57;2.47;;;1.00;;
67981;SDS011;64109;52.148;4.466;2022-12-16T04:21:42;2.17;;;0.60;;
67981;SDS011;64109;52.148;4.466;2022-12-16T04:24:27;2.55;;;0.80;;
67981;SDS011;64109;52.148;4.466;2022-12-16T04:26:53;1.67;;;0.52;;
67981;SDS011;64109;52.148;4.466;2022-12-16T04:29:38;1.83;;;0.52;;
67981;SDS011;64109;52.148;4.466;2022-12-16T04:32:24;3.67;;;1.13;;
67981;SDS011;64109;52.148;4.466;2022-12-16T04:34:50;2.78;;;0.82;;
67981;SDS011;64109;52.148;4.466;2022-12-16T04:37:17;1.50;;;0.55;;
67981;SDS011;64109;52.148;4.466;2022-12-16T04:40:02;1.23;;;0.60;;
67981;SDS011;64109;52.148;4.466;2022-12-16T04:42:46;1.38;;;1.02;;
67981;SDS011;64109;52.148;4.466;2022-12-16T04:45:31;3.63;;;0.90;;
67981;SDS011;64109;52.148;4.466;2022-12-16T04:48:16;2.47;;;0.80;;
67981;SDS011;64109;52.148;4.466;2022-12-16T04:51:00;0.95;;;0.50;;
67981;SDS011;64109;52.148;4.466;2022-12-16T04:53:45;2.03;;;0.80;;
67981;SDS011;64109;52.148;4.466;2022-12-16T04:56:29;2.17;;;0.93;;
67981;SDS011;64109;52.148;4.466;2022-12-16T04:59:14;3.03;;;1.00;;
67981;SDS011;64109;52.148;4.466;2022-12-16T05:01:58;1.95;;;0.82;;
67981;SDS011;64109;52.148;4.466;2022-12-16T05:04:43;2.10;;;0.73;;
67981;SDS011;64109;52.148;4.466;2022-12-16T05:07:28;3.28;;;0.60;;
67981;SDS011;64109;52.148;4.466;2022-12-16T05:10:12;2.38;;;0.60;;
67981;SDS011;64109;52.148;4.466;2022-12-16T05:12:57;2.40;;;0.70;;
67981;SDS011;64109;52.148;4.466;2022-12-16T05:15:41;2.10;;;0.73;;
67981;SDS011;64109;52.148;4.466;2022-12-16T05:18:26;2.53;;;1.13;;
67981;SDS011;64109;52.148;4.466;2022-12-16T05:21:10;1.88;;;0.65;;
67981;SDS011;64109;52.148;4.466;2022-12-16T05:23:55;2.80;;;0.82;;
67981;SDS011;64109;52.148;4.466;2022-12-16T05:26:40;2.90;;;0.80;;
67981;SDS011;64109;52.148;4.466;2022-12-16T05:29:24;1.52;;;0.65;;
67981;SDS011;64109;52.148;4.466;2022-12-16T05:32:09;2.45;;;1.13;;
67981;SDS011;64109;52.148;4.466;2022-12-16T05:34:53;2.58;;;0.80;;
67981;SDS011;64109;52.148;4.466;2022-12-16T05:37:38;1.65;;;0.55;;
67981;SDS011;64109;52.148;4.466;2022-12-16T05:40:30;2.13;;;0.85;;
67981;SDS011;64109;52.148;4.466;2022-12-16T05:43:15;2.20;;;0.52;;
67981;SDS011;64109;52.148;4.466;2022-12-16T05:45:59;4.22;;;0.85;;
67981;SDS011;64109;52.148;4.466;2022-12-16T05:48:44;1.88;;;0.50;;
67981;SDS011;64109;52.148;4.466;2022-12-16T05:51:29;1.55;;;0.68;;
67981;SDS011;64109;52.148;4.466;2022-12-16T05:54:13;2.30;;;0.80;;
67981;SDS011;64109;52.148;4.466;2022-12-16T05:56:58;0.95;;;0.47;;
67981;SDS011;64109;52.148;4.466;2022-12-16T05:59:42;1.83;;;1.00;;
67981;SDS011;64109;52.148;4.466;2022-12-16T06:02:27;5.28;;;0.90;;
67981;SDS011;64109;52.148;4.466;2022-12-16T06:05:11;2.42;;;0.80;;
67981;SDS011;64109;52.148;4.466;2022-12-16T06:07:56;1.38;;;0.77;;
67981;SDS011;64109;52.148;4.466;2022-12-16T06:10:40;1.45;;;0.60;;
67981;SDS011;64109;52.148;4.466;2022-12-16T06:13:25;1.50;;;0.70;;
67981;SDS011;64109;52.148;4.466;2022-12-16T06:16:09;3.42;;;0.85;;
67981;SDS011;64109;52.148;4.466;2022-12-16T06:18:54;2.13;;;1.08;;
67981;SDS011;64109;52.148;4.466;2022-12-16T06:21:38;1.88;;;0.85;;
67981;SDS011;64109;52.148;4.466;2022-12-16T06:24:23;3.00;;;0.80;;
67981;SDS011;64109;52.148;4.466;2022-12-16T06:27:08;4.63;;;1.25;;
67981;SDS011;64109;52.148;4.466;2022-12-16T06:29:52;2.17;;;0.68;;
67981;SDS011;64109;52.148;4.466;2022-12-16T06:32:37;1.98;;;0.98;;
67981;SDS011;64109;52.148;4.466;2022-12-16T06:35:21;3.65;;;0.93;;
67981;SDS011;64109;52.148;4.466;2022-12-16T06:38:06;3.42;;;1.15;;
67981;SDS011;64109;52.148;4.466;2022-12-16T06:40:51;1.95;;;0.90;;
67981;SDS011;64109;52.148;4.466;2022-12-16T06:43:35;4.30;;;1.05;;
67981;SDS011;64109;52.148;4.466;2022-12-16T06:46:30;3.90;;;0.77;;
67981;SDS011;64109;52.148;4.466;2022-12-16T06:49:15;3.60;;;1.08;;
67981;SDS011;64109;52.148;4.466;2022-12-16T06:52:00;2.45;;;1.42;;
67981;SDS011;64109;52.148;4.466;2022-12-16T06:54:44;3.45;;;1.30;;
67981;SDS011;64109;52.148;4.466;2022-12-16T06:57:29;5.13;;;1.20;;
67981;SDS011;64109;52.148;4.466;2022-12-16T07:00:13;2.05;;;1.02;;
67981;SDS011;64109;52.148;4.466;2022-12-16T07:02:58;3.63;;;1.15;;
67981;SDS011;64109;52.148;4.466;2022-12-16T07:05:43;3.42;;;0.85;;
67981;SDS011;64109;52.148;4.466;2022-12-16T07:08:27;3.83;;;1.17;;
67981;SDS011;64109;52.148;4.466;2022-12-16T07:11:12;3.45;;;0.88;;
67981;SDS011;64109;52.148;4.466;2022-12-16T07:13:56;3.83;;;1.10;;
67981;SDS011;64109;52.148;4.466;2022-12-16T07:16:41;4.55;;;1.33;;
67981;SDS011;64109;52.148;4.466;2022-12-16T07:19:25;5.70;;;1.23;;
67981;SDS011;64109;52.148;4.466;2022-12-16T07:22:10;3.30;;;1.20;;
67981;SDS011;64109;52.148;4.466;2022-12-16T07:24:54;4.22;;;1.00;;
67981;SDS011;64109;52.148;4.466;2022-12-16T07:27:39;3.95;;;0.90;;
67981;SDS011;64109;52.148;4.466;2022-12-16T07:30:28;3.40;;;1.10;;
67981;SDS011;64109;52.148;4.466;2022-12-16T07:33:13;4.30;;;0.80;;
67981;SDS011;64109;52.148;4.466;2022-12-16T07:35:57;3.15;;;0.82;;
67981;SDS011;64109;52.148;4.466;2022-12-16T07:38:42;3.50;;;0.60;;
67981;SDS011;64109;52.148;4.466;2022-12-16T07:41:46;4.03;;;1.20;;
67981;SDS011;64109;52.148;4.466;2022-12-16T07:44:30;5.20;;;1.02;;
67981;SDS011;64109;52.148;4.466;2022-12-16T07:47:15;2.78;;;1.27;;
67981;SDS011;64109;52.148;4.466;2022-12-16T07:50:00;3.92;;;1.30;;
67981;SDS011;64109;52.148;4.466;2022-12-16T07:52:44;2.83;;;1.20;;
67981;SDS011;64109;52.148;4.466;2022-12-16T07:55:29;4.57;;;0.90;;
67981;SDS011;64109;52.148;4.466;2022-12-16T07:58:14;5.40;;;1.10;;
67981;SDS011;64109;52.148;4.466;2022-12-16T08:00:59;2.67;;;1.13;;
67981;SDS011;64109;52.148;4.466;2022-12-16T08:03:44;2.85;;;1.10;;
67981;SDS011;64109;52.148;4.466;2022-12-16T08:06:28;5.80;;;1.00;;
67981;SDS011;64109;52.148;4.466;2022-12-16T08:09:13;3.60;;;1.20;;
67981;SDS011;64109;52.148;4.466;2022-12-16T08:11:57;2.95;;;1.10;;
67981;SDS011;64109;52.148;4.466;2022-12-16T08:14:42;3.47;;;1.20;;
67981;SDS011;64109;52.148;4.466;2022-12-16T08:17:26;4.05;;;1.10;;
67981;SDS011;64109;52.148;4.466;2022-12-16T08:20:11;3.67;;;1.20;;
67981;SDS011;64109;52.148;4.466;2022-12-16T08:22:56;5.20;;;1.42;;
67981;SDS011;64109;52.148;4.466;2022-12-16T08:25:40;7.43;;;2.05;;
67981;SDS011;64109;52.148;4.466;2022-12-16T08:28:25;3.15;;;1.15;;
67981;SDS011;64109;52.148;4.466;2022-12-16T08:31:09;5.28;;;1.63;;
67981;SDS011;64109;52.148;4.466;2022-12-16T08:33:54;3.88;;;1.42;;
67981;SDS011;64109;52.148;4.466;2022-12-16T08:36:38;5.20;;;1.20;;
67981;SDS011;64109;52.148;4.466;2022-12-16T08:39:23;3.75;;;1.15;;
67981;SDS011;64109;52.148;4.466;2022-12-16T08:42:07;4.30;;;1.20;;
67981;SDS011;64109;52.148;4.466;2022-12-16T08:44:52;5.70;;;1.38;;
67981;SDS011;64109;52.148;4.466;2022-12-16T08:47:36;2.70;;;1.10;;
67981;SDS011;64109;52.148;4.466;2022-12-16T08:50:21;3.80;;;1.40;;
67981;SDS011;64109;52.148;4.466;2022-12-16T08:53:06;5.00;;;1.67;;
67981;SDS011;64109;52.148;4.466;2022-12-16T08:55:50;3.05;;;1.00;;
67981;SDS011;64109;52.148;4.466;2022-12-16T08:58:35;3.92;;;1.15;;
67981;SDS011;64109;52.148;4.466;2022-12-16T09:01:20;4.78;;;1.20;;
67981;SDS011;64109;52.148;4.466;2022-12-16T09:04:04;4.72;;;1.17;;
67981;SDS011;64109;52.148;4.466;2022-12-16T09:06:49;4.28;;;1.75;;
67981;SDS011;64109;52.148;4.466;2022-12-16T09:09:33;2.97;;;1.35;;
67981;SDS011;64109;52.148;4.466;2022-12-16T09:12:18;2.78;;;1.30;;
67981;SDS011;64109;52.148;4.466;2022-12-16T09:15:02;3.40;;;1.35;;
67981;SDS011;64109;52.148;4.466;2022-12-16T09:17:52;4.78;;;1.60;;
67981;SDS011;64109;52.148;4.466;2022-12-16T09:20:37;3.47;;;1.13;;
67981;SDS011;64109;52.148;4.466;2022-12-16T09:23:32;5.20;;;1.42;;
67981;SDS011;64109;52.148;4.466;2022-12-16T09:26:16;2.70;;;1.17;;
67981;SDS011;64109;52.148;4.466;2022-12-16T09:29:01;4.15;;;1.48;;
67981;SDS011;64109;52.148;4.466;2022-12-16T09:31:45;4.60;;;1.27;;
67981;SDS011;64109;52.148;4.466;2022-12-16T09:34:30;4.50;;;1.35;;
67981;SDS011;64109;52.148;4.466;2022-12-16T09:37:14;3.13;;;1.30;;
67981;SDS011;64109;52.148;4.466;2022-12-16T09:39:59;3.70;;;1.23;;
67981;SDS011;64109;52.148;4.466;2022-12-16T09:42:53;2.75;;;1.05;;
67981;SDS011;64109;52.148;4.466;2022-12-16T09:45:45;2.38;;;1.10;;
67981;SDS011;64109;52.148;4.466;2022-12-16T09:48:40;3.35;;;1.20;;
67981;SDS011;64109;52.148;4.466;2022-12-16T09:51:29;3.92;;;1.20;;
67981;SDS011;64109;52.148;4.466;2022-12-16T09:54:15;3.17;;;1.38;;
67981;SDS011;64109;52.148;4.466;2022-12-16T09:57:01;4.53;;;1.13;;
67981;SDS011;64109;52.148;4.466;2022-12-16T09:59:49;3.22;;;1.00;;
67981;SDS011;64109;52.148;4.466;2022-12-16T10:02:36;2.85;;;0.93;;
67981;SDS011;64109;52.148;4.466;2022-12-16T10:05:22;2.95;;;1.17;;
67981;SDS011;64109;52.148;4.466;2022-12-16T10:11:03;3.30;;;1.10;;
67981;SDS011;64109;52.148;4.466;2022-12-16T10:16:55;4.18;;;1.15;;
67981;SDS011;64109;52.148;4.466;2022-12-16T10:19:57;2.40;;;1.02;;
67981;SDS011;64109;52.148;4.466;2022-12-16T10:29:04;2.95;;;1.33;;
67981;SDS011;64109;52.148;4.466;2022-12-16T10:31:50;2.83;;;1.08;;
67981;SDS011;64109;52.148;4.466;2022-12-16T10:34:34;2.22;;;1.05;;
67981;SDS011;64109;52.148;4.466;2022-12-16T10:40:14;2.90;;;1.00;;
67981;SDS011;64109;52.148;4.466;2022-12-16T10:43:12;2.50;;;1.10;;
67981;SDS011;64109;52.148;4.466;2022-12-16T10:45:58;2.92;;;1.20;;
67981;SDS011;64109;52.148;4.466;2022-12-16T10:48:43;3.58;;;0.90;;
67981;SDS011;64109;52.148;4.466;2022-12-16T10:51:28;3.38;;;1.17;;
67981;SDS011;64109;52.148;4.466;2022-12-16T10:57:14;4.35;;;1.15;;
67981;SDS011;64109;52.148;4.466;2022-12-16T11:03:20;2.60;;;1.33;;
67981;SDS011;64109;52.148;4.466;2022-12-16T11:06:05;3.35;;;1.00;;
67981;SDS011;64109;52.148;4.466;2022-12-16T11:08:51;2.95;;;0.88;;
67981;SDS011;64109;52.148;4.466;2022-12-16T11:11:35;2.28;;;1.10;;
67981;SDS011;64109;52.148;4.466;2022-12-16T11:14:22;2.22;;;1.00;;
67981;SDS011;64109;52.148;4.466;2022-12-16T11:23:20;3.70;;;0.93;;
67981;SDS011;64109;52.148;4.466;2022-12-16T11:26:26;2.20;;;0.90;;
67981;SDS011;64109;52.148;4.466;2022-12-16T11:34:48;1.75;;;0.85;;
67981;SDS011;64109;52.148;4.466;2022-12-16T11:37:34;3.13;;;0.80;;
67981;SDS011;64109;52.148;4.466;2022-12-16T11:40:19;2.72;;;0.70;;
67981;SDS011;64109;52.148;4.466;2022-12-16T11:43:05;1.38;;;0.80;;
67981;SDS011;64109;52.148;4.466;2022-12-16T11:45:50;2.65;;;0.80;;
67981;SDS011;64109;52.148;4.466;2022-12-16T11:48:49;2.90;;;1.10;;
67981;SDS011;64109;52.148;4.466;2022-12-16T11:51:36;3.42;;;0.80;;
67981;SDS011;64109;52.148;4.466;2022-12-16T11:54:24;1.67;;;0.82;;
67981;SDS011;64109;52.148;4.466;2022-12-16T11:57:18;1.45;;;0.88;;
67981;SDS011;64109;52.148;4.466;2022-12-16T12:00:04;1.67;;;0.50;;
67981;SDS011;64109;52.148;4.466;2022-12-16T12:02:51;2.28;;;0.70;;
67981;SDS011;64109;52.148;4.466;2022-12-16T12:05:42;2.22;;;0.90;;
67981;SDS011;64109;52.148;4.466;2022-12-16T12:08:45;2.28;;;0.85;;
67981;SDS011;64109;52.148;4.466;2022-12-16T12:11:33;1.52;;;0.70;;
67981;SDS011;64109;52.148;4.466;2022-12-16T12:17:23;1.50;;;0.90;;
67981;SDS011;64109;52.148;4.466;2022-12-16T12:23:15;1.58;;;0.90;;
67981;SDS011;64109;52.148;4.466;2022-12-16T12:28:50;1.35;;;0.80;;
67981;SDS011;64109;52.148;4.466;2022-12-16T12:31:39;2.40;;;0.70;;
67981;SDS011;64109;52.148;4.466;2022-12-16T12:35:11;3.17;;;0.95;;
67981;SDS011;64109;52.148;4.466;2022-12-16T12:37:45;2.45;;;0.88;;
67981;SDS011;64109;52.148;4.466;2022-12-16T12:43:18;3.00;;;1.35;;
67981;SDS011;64109;52.148;4.466;2022-12-16T12:46:19;3.13;;;0.95;;
67981;SDS011;64109;52.148;4.466;2022-12-16T12:52:00;3.17;;;1.00;;
67981;SDS011;64109;52.148;4.466;2022-12-16T12:54:50;1.48;;;0.57;;
67981;SDS011;64109;52.148;4.466;2022-12-16T12:57:36;10.60;;;1.42;;
67981;SDS011;64109;52.148;4.466;2022-12-16T13:00:23;2.85;;;0.80;;
67981;SDS011;64109;52.148;4.466;2022-12-16T13:05:56;1.73;;;0.90;;
67981;SDS011;64109;52.148;4.466;2022-12-16T13:11:26;3.33;;;0.90;;
67981;SDS011;64109;52.148;4.466;2022-12-16T13:17:17;1.77;;;0.70;;
67981;SDS011;64109;52.148;4.466;2022-12-16T13:20:03;3.35;;;0.80;;
67981;SDS011;64109;52.148;4.466;2022-12-16T13:22:48;1.45;;;0.85;;
67981;SDS011;64109;52.148;4.466;2022-12-16T13:28:30;1.40;;;0.70;;
67981;SDS011;64109;52.148;4.466;2022-12-16T13:31:15;1.70;;;0.65;;
67981;SDS011;64109;52.148;4.466;2022-12-16T13:34:22;1.60;;;0.80;;
67981;SDS011;64109;52.148;4.466;2022-12-16T13:37:15;2.70;;;0.90;;
67981;SDS011;64109;52.148;4.466;2022-12-16T13:40:19;2.28;;;0.75;;
67981;SDS011;64109;52.148;4.466;2022-12-16T13:43:04;2.70;;;0.75;;
67981;SDS011;64109;52.148;4.466;2022-12-16T13:48:40;2.08;;;0.73;;
67981;SDS011;64109;52.148;4.466;2022-12-16T13:54:27;2.53;;;0.75;;
67981;SDS011;64109;52.148;4.466;2022-12-16T13:57:12;1.95;;;0.90;;
67981;SDS011;64109;52.148;4.466;2022-12-16T13:59:58;1.77;;;0.82;;
67981;SDS011;64109;52.148;4.466;2022-12-16T14:02:44;2.35;;;0.93;;
67981;SDS011;64109;52.148;4.466;2022-12-16T14:05:30;0.88;;;0.50;;
67981;SDS011;64109;52.148;4.466;2022-12-16T14:08:17;1.30;;;0.88;;
67981;SDS011;64109;52.148;4.466;2022-12-16T14:11:03;1.50;;;0.60;;
67981;SDS011;64109;52.148;4.466;2022-12-16T14:16:52;1.05;;;0.70;;
67981;SDS011;64109;52.148;4.466;2022-12-16T14:25:31;1.70;;;0.90;;
67981;SDS011;64109;52.148;4.466;2022-12-16T14:31:04;1.55;;;0.90;;
67981;SDS011;64109;52.148;4.466;2022-12-16T14:33:52;0.93;;;0.82;;
67981;SDS011;64109;52.148;4.466;2022-12-16T14:39:23;1.92;;;0.73;;
67981;SDS011;64109;52.148;4.466;2022-12-16T14:42:17;1.73;;;0.50;;
67981;SDS011;64109;52.148;4.466;2022-12-16T14:45:02;2.28;;;0.60;;
67981;SDS011;64109;52.148;4.466;2022-12-16T14:47:47;0.95;;;0.60;;
67981;SDS011;64109;52.148;4.466;2022-12-16T14:50:32;1.20;;;0.57;;
67981;SDS011;64109;52.148;4.466;2022-12-16T14:53:18;1.13;;;0.77;;
67981;SDS011;64109;52.148;4.466;2022-12-16T15:01:57;1.30;;;0.60;;
67981;SDS011;64109;52.148;4.466;2022-12-16T15:04:43;1.23;;;0.70;;
67981;SDS011;64109;52.148;4.466;2022-12-16T15:07:29;0.93;;;0.70;;
67981;SDS011;64109;52.148;4.466;2022-12-16T15:10:17;1.00;;;0.55;;
67981;SDS011;64109;52.148;4.466;2022-12-16T15:13:02;1.00;;;0.47;;
67981;SDS011;64109;52.148;4.466;2022-12-16T15:15:47;2.10;;;0.70;;
67981;SDS011;64109;52.148;4.466;2022-12-16T15:18:34;2.10;;;0.73;;
67981;SDS011;64109;52.148;4.466;2022-12-16T15:21:20;1.42;;;0.60;;
67981;SDS011;64109;52.148;4.466;2022-12-16T15:24:15;0.98;;;0.52;;
67981;SDS011;64109;52.148;4.466;2022-12-16T15:29:57;1.42;;;0.47;;
67981;SDS011;64109;52.148;4.466;2022-12-16T15:32:42;0.65;;;0.45;;
67981;SDS011;64109;52.148;4.466;2022-12-16T15:35:35;0.98;;;0.85;;
67981;SDS011;64109;52.148;4.466;2022-12-16T15:38:28;1.58;;;0.55;;
67981;SDS011;64109;52.148;4.466;2022-12-16T15:41:21;0.80;;;0.47;;
67981;SDS011;64109;52.148;4.466;2022-12-16T15:44:14;1.60;;;0.70;;
67981;SDS011;64109;52.148;4.466;2022-12-16T15:46:59;1.15;;;0.70;;
67981;SDS011;64109;52.148;4.466;2022-12-16T15:49:44;0.52;;;0.40;;
67981;SDS011;64109;52.148;4.466;2022-12-16T15:52:35;1.27;;;0.50;;
67981;SDS011;64109;52.148;4.466;2022-12-16T15:58:12;1.02;;;0.50;;
67981;SDS011;64109;52.148;4.466;2022-12-16T16:00:57;1.63;;;0.70;;
67981;SDS011;64109;52.148;4.466;2022-12-16T16:03:47;1.20;;;0.60;;
67981;SDS011;64109;52.148;4.466;2022-12-16T16:06:32;1.05;;;0.55;;
67981;SDS011;64109;52.148;4.466;2022-12-16T16:12:04;0.55;;;0.40;;
67981;SDS011;64109;52.148;4.466;2022-12-16T16:14:48;1.30;;;0.50;;
67981;SDS011;64109;52.148;4.466;2022-12-16T16:17:33;1.60;;;0.60;;
67981;SDS011;64109;52.148;4.466;2022-12-16T16:20:17;1.30;;;0.60;;
67981;SDS011;64109;52.148;4.466;2022-12-16T16:23:02;0.98;;;0.50;;
67981;SDS011;64109;52.148;4.466;2022-12-16T16:25:47;1.00;;;0.45;;
67981;SDS011;64109;52.148;4.466;2022-12-16T16:28:32;1.17;;;0.70;;
67981;SDS011;64109;52.148;4.466;2022-12-16T16:31:17;1.33;;;0.52;;
67981;SDS011;64109;52.148;4.466;2022-12-16T16:34:02;1.50;;;0.77;;
67981;SDS011;64109;52.148;4.466;2022-12-16T16:36:47;1.67;;;0.45;;
67981;SDS011;64109;52.148;4.466;2022-12-16T16:39:34;1.00;;;0.70;;
67981;SDS011;64109;52.148;4.466;2022-12-16T16:42:18;1.40;;;0.60;;
67981;SDS011;64109;52.148;4.466;2022-12-16T16:45:06;2.00;;;0.60;;
67981;SDS011;64109;52.148;4.466;2022-12-16T16:47:55;1.10;;;0.60;;
67981;SDS011;64109;52.148;4.466;2022-12-16T16:50:45;0.95;;;0.70;;
67981;SDS011;64109;52.148;4.466;2022-12-16T16:53:29;1.17;;;0.68;;
67981;SDS011;64109;52.148;4.466;2022-12-16T16:56:14;1.60;;;0.70;;
67981;SDS011;64109;52.148;4.466;2022-12-16T16:58:58;0.95;;;0.60;;
67981;SDS011;64109;52.148;4.466;2022-12-16T17:01:43;1.38;;;0.63;;
67981;SDS011;64109;52.148;4.466;2022-12-16T17:04:27;0.95;;;0.60;;
67981;SDS011;64109;52.148;4.466;2022-12-16T17:07:12;1.70;;;0.90;;
67981;SDS011;64109;52.148;4.466;2022-12-16T17:09:57;1.00;;;0.70;;
67981;SDS011;64109;52.148;4.466;2022-12-16T17:12:42;1.70;;;0.80;;
67981;SDS011;64109;52.148;4.466;2022-12-16T17:15:30;1.40;;;0.68;;
67981;SDS011;64109;52.148;4.466;2022-12-16T17:18:16;3.25;;;0.80;;
67981;SDS011;64109;52.148;4.466;2022-12-16T17:21:00;2.28;;;1.05;;
67981;SDS011;64109;52.148;4.466;2022-12-16T17:23:45;1.52;;;1.10;;
67981;SDS011;64109;52.148;4.466;2022-12-16T17:26:30;2.50;;;1.35;;
67981;SDS011;64109;52.148;4.466;2022-12-16T17:29:22;2.40;;;1.20;;
67981;SDS011;64109;52.148;4.466;2022-12-16T17:32:07;3.38;;;1.58;;
67981;SDS011;64109;52.148;4.466;2022-12-16T17:34:52;3.83;;;1.48;;
67981;SDS011;64109;52.148;4.466;2022-12-16T17:37:36;2.70;;;1.50;;
67981;SDS011;64109;52.148;4.466;2022-12-16T17:40:21;2.13;;;1.50;;
67981;SDS011;64109;52.148;4.466;2022-12-16T17:43:06;3.45;;;1.45;;
67981;SDS011;64109;52.148;4.466;2022-12-16T17:48:41;2.65;;;1.17;;
67981;SDS011;64109;52.148;4.466;2022-12-16T17:51:26;3.28;;;1.40;;
67981;SDS011;64109;52.148;4.466;2022-12-16T17:54:10;4.57;;;1.55;;
67981;SDS011;64109;52.148;4.466;2022-12-16T17:56:55;7.00;;;3.42;;
67981;SDS011;64109;52.148;4.466;2022-12-16T17:59:39;10.73;;;4.57;;
67981;SDS011;64109;52.148;4.466;2022-12-16T18:02:24;12.35;;;4.22;;
67981;SDS011;64109;52.148;4.466;2022-12-16T18:05:09;13.38;;;5.82;;
67981;SDS011;64109;52.148;4.466;2022-12-16T18:07:53;11.02;;;4.50;;
67981;SDS011;64109;52.148;4.466;2022-12-16T18:10:38;11.07;;;4.45;;
67981;SDS011;64109;52.148;4.466;2022-12-16T18:13:22;9.10;;;4.22;;
67981;SDS011;64109;52.148;4.466;2022-12-16T18:16:07;10.50;;;4.60;;
67981;SDS011;64109;52.148;4.466;2022-12-16T18:18:51;10.00;;;4.65;;
67981;SDS011;64109;52.148;4.466;2022-12-16T18:21:36;10.85;;;4.70;;
67981;SDS011;64109;52.148;4.466;2022-12-16T18:24:21;11.40;;;5.00;;
67981;SDS011;64109;52.148;4.466;2022-12-16T18:27:05;9.05;;;4.85;;
67981;SDS011;64109;52.148;4.466;2022-12-16T18:29:50;13.90;;;5.85;;